METAR Data
IDs: Format: Raw Decoded Include TAF

Data at: 1945 UTC 31 Jul 2021

METAR for:KFDK (Frederick Muni, MD, US)
Text:KFDK 311847Z 26008KT 10SM SCT049 27/13 A2999
Temperature: 27.0°C ( 81°F)
Dewpoint: 13.0°C ( 55°F) [RH = 42%]
Pressure (altimeter):29.99 inches Hg (1015.7 mb)
Winds:from the W (260 degrees) at 9 MPH (8 knots; 4.1 m/s)
Visibility:10 or more sm (16+ km)
Ceiling:at least 12,000 feet AGL
Clouds: scattered clouds at 4900 feet AGL